createdAt,value
2022-07-30T00:01:21.954Z,95.39
2022-07-30T00:03:49.562Z,96.52
2022-07-30T00:06:18.639Z,97.16
2022-07-30T00:08:45.609Z,98.15
2022-07-30T00:11:13.068Z,98.08
2022-07-30T00:13:40.469Z,98.81
2022-07-30T00:16:07.887Z,97.62
2022-07-30T00:18:35.307Z,96.63
2022-07-30T00:21:02.930Z,95.89
2022-07-30T00:23:30.405Z,95.07
2022-07-30T00:25:57.979Z,94.86
2022-07-30T00:28:25.400Z,93.84
2022-07-30T00:30:56.181Z,93.82
2022-07-30T00:33:23.867Z,93.60
2022-07-30T00:35:51.252Z,94.45
2022-07-30T00:38:18.627Z,95.32
2022-07-30T00:40:49.276Z,98.51
2022-07-30T00:43:17.541Z,100.00
2022-07-30T00:45:45.070Z,100.00
2022-07-30T00:48:14.046Z,100.00
2022-07-30T00:50:41.798Z,99.42
2022-07-30T00:53:12.300Z,99.17
2022-07-30T00:55:39.434Z,98.77
2022-07-30T00:58:06.509Z,98.03
2022-07-30T01:00:33.502Z,98.00
2022-07-30T01:03:00.511Z,98.18
2022-07-30T01:05:27.501Z,97.68
2022-07-30T01:07:55.283Z,97.69
2022-07-30T01:10:22.613Z,98.05
2022-07-30T01:12:52.601Z,99.08
2022-07-30T01:15:20.365Z,100.00
2022-07-30T01:17:52.882Z,100.00
2022-07-30T01:21:05.739Z,100.00
2022-07-30T01:23:39.862Z,100.00
2022-07-30T01:26:14.970Z,100.00
2022-07-30T01:28:54.990Z,100.00
2022-07-30T01:31:26.081Z,100.00
2022-07-30T01:33:54.992Z,100.00
2022-07-30T01:36:23.489Z,100.00
2022-07-30T01:38:52.239Z,100.00
2022-07-30T01:41:20.493Z,100.00
2022-07-30T01:43:47.945Z,100.00
2022-07-30T01:46:17.815Z,100.00
2022-07-30T01:48:48.149Z,100.00
2022-07-30T01:51:18.392Z,100.00
2022-07-30T01:53:51.632Z,100.00
2022-07-30T01:56:24.507Z,100.00
2022-07-30T01:58:54.663Z,100.00
2022-07-30T02:01:25.102Z,100.00
2022-07-30T02:04:01.220Z,100.00
2022-07-30T02:06:42.873Z,100.00
2022-07-30T02:09:20.126Z,100.00
2022-07-30T02:12:07.068Z,100.00
2022-07-30T02:14:48.447Z,100.00
2022-07-30T02:17:30.159Z,100.00
2022-07-30T02:20:05.636Z,100.00
2022-07-30T02:22:41.072Z,100.00
2022-07-30T02:25:10.645Z,100.00
2022-07-30T02:27:42.134Z,100.00
2022-07-30T02:30:11.337Z,100.00
2022-07-30T02:32:42.891Z,100.00
2022-07-30T02:35:18.813Z,100.00
2022-07-30T02:37:50.803Z,100.00
2022-07-30T02:40:20.476Z,100.00
2022-07-30T02:42:50.659Z,100.00
2022-07-30T02:45:22.753Z,100.00
2022-07-30T02:47:58.938Z,100.00
2022-07-30T02:50:28.188Z,100.00
2022-07-30T02:52:58.501Z,100.00
2022-07-30T02:55:28.897Z,100.00
2022-07-30T02:57:57.732Z,100.00
2022-07-30T03:00:29.511Z,100.00
2022-07-30T03:02:57.756Z,100.00
2022-07-30T03:05:26.845Z,100.00
2022-07-30T03:07:59.762Z,100.00
2022-07-30T03:10:27.838Z,100.00
2022-07-30T03:12:56.339Z,100.00
2022-07-30T03:15:23.703Z,100.00
2022-07-30T03:17:55.548Z,100.00
2022-07-30T03:20:30.141Z,100.00
2022-07-30T03:22:59.972Z,100.00
2022-07-30T03:25:31.086Z,100.00
2022-07-30T03:28:04.070Z,100.00
2022-07-30T03:30:33.613Z,100.00
2022-07-30T03:33:01.278Z,100.00
2022-07-30T03:35:31.275Z,100.00
2022-07-30T03:38:00.059Z,100.00
2022-07-30T03:40:27.814Z,100.00
2022-07-30T03:42:55.958Z,100.00
2022-07-30T03:45:25.510Z,100.00
2022-07-30T03:47:58.250Z,100.00
2022-07-30T03:50:26.174Z,100.00
2022-07-30T03:52:53.729Z,100.00
2022-07-30T03:55:22.213Z,100.00
2022-07-30T03:57:49.345Z,100.00
2022-07-30T04:00:18.297Z,100.00
2022-07-30T04:02:50.079Z,100.00
2022-07-30T04:05:17.287Z,100.00
2022-07-30T04:07:46.549Z,100.00
2022-07-30T04:10:16.330Z,100.00
2022-07-30T04:13:12.553Z,100.00
2022-07-30T04:16:38.236Z,100.00
2022-07-30T04:18:51.229Z,100.00
2022-07-30T04:21:20.789Z,100.00
2022-07-30T04:24:02.295Z,100.00
2022-07-30T04:26:35.495Z,100.00
2022-07-30T04:29:06.944Z,100.00
2022-07-30T04:31:40.287Z,100.00
2022-07-30T04:34:55.994Z,100.00
2022-07-30T04:37:55.157Z,100.00
2022-07-30T04:40:22.300Z,100.00
2022-07-30T04:42:49.530Z,100.00
2022-07-30T04:45:16.937Z,100.00
2022-07-30T04:47:53.745Z,100.00
2022-07-30T04:50:46.346Z,100.00
2022-07-30T04:53:19.617Z,100.00
2022-07-30T04:55:57.311Z,100.00
2022-07-30T04:58:28.698Z,100.00
2022-07-30T05:00:57.911Z,100.00
2022-07-30T05:03:30.422Z,100.00
2022-07-30T05:05:59.113Z,100.00
2022-07-30T05:08:31.278Z,100.00
2022-07-30T05:11:00.901Z,100.00
2022-07-30T05:13:34.510Z,100.00
2022-07-30T05:16:05.805Z,99.56
2022-07-30T05:18:32.965Z,93.63
2022-07-30T05:21:00.163Z,87.24
2022-07-30T05:23:42.099Z,80.74
2022-07-30T05:26:50.463Z,75.58
2022-07-30T05:29:20.008Z,67.21
2022-07-30T05:32:09.720Z,60.47
2022-07-30T05:34:37.384Z,58.68
2022-07-30T05:37:05.009Z,54.16
2022-07-30T05:39:32.467Z,54.46
2022-07-30T05:42:19.905Z,54.85
2022-07-30T05:44:49.201Z,52.25
2022-07-30T05:47:16.198Z,50.67
2022-07-30T05:49:44.747Z,49.35
2022-07-30T05:52:15.111Z,51.29
2022-07-30T05:54:42.618Z,53.05
2022-07-30T05:57:36.799Z,50.30
2022-07-30T06:00:07.659Z,49.54
2022-07-30T06:02:43.864Z,46.60
2022-07-30T06:05:37.034Z,42.63
2022-07-30T06:08:04.410Z,44.59
2022-07-30T06:10:32.286Z,44.06
2022-07-30T06:12:59.669Z,43.32
2022-07-30T06:15:27.141Z,41.65
2022-07-30T06:17:59.567Z,41.72
2022-07-30T06:20:55.692Z,41.66
2022-07-30T06:23:31.055Z,39.48
2022-07-30T06:26:09.381Z,38.65
2022-07-30T06:28:38.550Z,42.35
2022-07-30T06:31:15.210Z,43.07
2022-07-30T06:33:43.227Z,43.51
2022-07-30T06:36:14.046Z,43.72
2022-07-30T06:39:07.955Z,42.23
2022-07-30T06:42:00.819Z,37.96
2022-07-30T06:44:38.365Z,35.57
2022-07-30T06:47:28.940Z,37.88
2022-07-30T06:49:57.688Z,37.77
2022-07-30T06:52:26.309Z,37.05
2022-07-30T06:54:54.674Z,36.36
2022-07-30T06:57:38.751Z,35.76
2022-07-30T07:00:17.770Z,37.87
2022-07-30T07:02:46.174Z,38.08
2022-07-30T07:05:14.790Z,36.76
2022-07-30T07:07:58.188Z,35.51
2022-07-30T07:10:28.486Z,37.13
2022-07-30T07:13:16.009Z,38.84
2022-07-30T07:15:43.333Z,35.42
2022-07-30T07:18:15.406Z,35.05
2022-07-30T07:20:49.789Z,34.95
2022-07-30T07:23:19.599Z,31.71
2022-07-30T07:25:48.827Z,32.08
2022-07-30T07:28:16.760Z,32.71
2022-07-30T07:30:45.073Z,34.54
2022-07-30T07:33:15.616Z,35.50
2022-07-30T07:35:49.704Z,33.23
2022-07-30T07:38:25.783Z,32.10
2022-07-30T07:40:54.442Z,33.74
2022-07-30T07:43:22.023Z,33.18
2022-07-30T07:45:49.971Z,32.12
2022-07-30T07:48:19.258Z,34.09
2022-07-30T07:50:51.708Z,33.13
2022-07-30T07:53:30.691Z,33.38
2022-07-30T07:55:58.740Z,31.59
2022-07-30T07:58:27.166Z,33.00
2022-07-30T08:00:58.346Z,33.17
2022-07-30T08:03:45.352Z,30.22
2022-07-30T08:06:32.360Z,31.29
2022-07-30T08:09:43.859Z,32.26
2022-07-30T08:12:27.642Z,31.93
2022-07-30T08:15:13.165Z,32.76
2022-07-30T08:18:03.066Z,31.21
2022-07-30T08:20:39.843Z,29.53
2022-07-30T08:23:08.303Z,31.24
2022-07-30T08:25:35.425Z,30.20
2022-07-30T08:28:03.366Z,30.35
2022-07-30T08:30:31.502Z,28.48
2022-07-30T08:32:59.501Z,28.72
2022-07-30T08:35:26.565Z,27.63
2022-07-30T08:37:53.668Z,26.09
2022-07-30T08:40:26.516Z,26.39
2022-07-30T08:43:05.476Z,25.69
2022-07-30T08:45:35.280Z,26.09
2022-07-30T08:48:29.598Z,24.92
2022-07-30T08:50:57.189Z,26.02
2022-07-30T08:53:35.523Z,24.79
2022-07-30T08:56:04.775Z,23.59
2022-07-30T08:58:36.960Z,23.21
2022-07-30T09:01:05.998Z,22.58
2022-07-30T09:03:34.082Z,23.33
2022-07-30T09:06:04.247Z,23.58
2022-07-30T09:08:32.347Z,26.16
2022-07-30T09:11:00.380Z,29.27
2022-07-30T09:13:34.452Z,29.53
2022-07-30T09:16:03.369Z,28.59
2022-07-30T09:18:40.780Z,28.40
2022-07-30T09:21:24.431Z,30.73
2022-07-30T09:24:13.599Z,29.63
2022-07-30T09:27:07.145Z,31.09
2022-07-30T09:29:37.460Z,27.12
2022-07-30T09:32:23.422Z,28.37
2022-07-30T09:35:29.248Z,29.79
2022-07-30T09:38:12.265Z,28.86
2022-07-30T09:41:04.906Z,30.76
2022-07-30T09:43:44.545Z,28.57
2022-07-30T09:46:20.340Z,26.95
2022-07-30T09:48:49.403Z,25.46
2022-07-30T09:51:18.481Z,24.53
2022-07-30T09:53:56.993Z,23.59
2022-07-30T09:56:30.046Z,25.64
2022-07-30T09:58:58.999Z,24.91
2022-07-30T10:01:49.856Z,23.30
2022-07-30T10:04:34.646Z,23.01
2022-07-30T10:07:25.203Z,21.38
2022-07-30T10:10:00.539Z,21.42
2022-07-30T10:12:29.006Z,22.30
2022-07-30T10:14:59.173Z,22.76
2022-07-30T10:17:28.422Z,22.49
2022-07-30T10:20:17.980Z,22.90
2022-07-30T10:22:46.691Z,22.34
2022-07-30T10:25:35.296Z,20.19
2022-07-30T10:28:10.425Z,21.70
2022-07-30T10:30:38.259Z,23.28
2022-07-30T10:33:08.854Z,23.24
2022-07-30T10:35:56.711Z,22.69
2022-07-30T10:38:28.220Z,21.72
2022-07-30T10:41:22.324Z,22.91
2022-07-30T10:44:33.304Z,23.61
2022-07-30T10:47:07.775Z,22.59
2022-07-30T10:49:40.996Z,22.52
2022-07-30T10:52:10.227Z,22.05
2022-07-30T10:54:42.859Z,19.89
2022-07-30T10:57:15.221Z,19.03
2022-07-30T10:59:57.565Z,19.47
2022-07-30T11:02:28.964Z,21.25
2022-07-30T11:05:17.657Z,20.94
2022-07-30T11:07:47.457Z,19.81
2022-07-30T11:10:35.280Z,19.40
2022-07-30T11:13:08.692Z,20.15
2022-07-30T11:15:52.753Z,22.45
2022-07-30T11:18:20.580Z,23.82
2022-07-30T11:21:13.898Z,24.59
2022-07-30T11:23:41.464Z,23.52
2022-07-30T11:26:14.498Z,21.18
2022-07-30T11:28:43.102Z,21.85
2022-07-30T11:31:36.970Z,23.52
2022-07-30T11:34:19.466Z,20.70
2022-07-30T11:37:19.076Z,20.38
2022-07-30T11:39:56.034Z,21.08
2022-07-30T11:42:34.833Z,20.92
2022-07-30T11:45:29.742Z,21.39
2022-07-30T11:48:00.110Z,21.13
2022-07-30T11:50:30.210Z,22.96
2022-07-30T11:53:09.522Z,22.91
2022-07-30T11:55:39.185Z,24.05
2022-07-30T11:58:23.982Z,25.20
2022-07-30T12:00:51.852Z,27.16
2022-07-30T12:03:21.370Z,26.05
2022-07-30T12:05:51.049Z,26.52
2022-07-30T12:08:33.545Z,26.68
2022-07-30T12:11:03.629Z,24.30
2022-07-30T12:13:45.441Z,23.23
2022-07-30T12:16:17.507Z,23.43
2022-07-30T12:18:45.790Z,25.42
2022-07-30T12:21:16.292Z,25.52
2022-07-30T12:24:04.618Z,26.51
2022-07-30T12:26:34.200Z,26.31
2022-07-30T12:29:04.864Z,24.72
2022-07-30T12:31:33.828Z,23.49
2022-07-30T12:34:01.364Z,25.36
2022-07-30T12:36:35.032Z,28.17
2022-07-30T12:39:04.811Z,26.79
2022-07-30T12:41:45.721Z,26.13
2022-07-30T12:44:40.072Z,24.73
2022-07-30T12:47:19.201Z,22.81
2022-07-30T12:49:49.884Z,22.74
2022-07-30T12:52:31.240Z,20.46
2022-07-30T12:55:08.907Z,21.60
2022-07-30T12:57:56.730Z,20.73
2022-07-30T13:00:26.667Z,22.01
2022-07-30T13:02:54.147Z,22.57
2022-07-30T13:05:21.925Z,21.18
2022-07-30T13:07:59.803Z,21.68
2022-07-30T13:10:31.302Z,23.07
2022-07-30T13:12:59.532Z,24.01
2022-07-30T13:15:26.937Z,24.59
2022-07-30T13:17:54.341Z,25.75
2022-07-30T13:20:22.199Z,26.65
2022-07-30T13:22:49.568Z,26.78
2022-07-30T13:25:18.041Z,26.75
2022-07-30T13:27:45.389Z,26.96
2022-07-30T13:30:13.088Z,26.90
2022-07-30T13:32:40.453Z,26.47
2022-07-30T13:35:08.287Z,27.32
2022-07-30T13:37:37.729Z,27.28
2022-07-30T13:40:06.542Z,28.02
2022-07-30T13:42:34.011Z,28.25
2022-07-30T13:45:01.403Z,28.64
2022-07-30T13:47:29.163Z,28.82
2022-07-30T13:49:56.502Z,29.68
2022-07-30T13:52:23.911Z,29.36
2022-07-30T13:54:53.638Z,28.84
2022-07-30T13:57:21.089Z,28.52
2022-07-30T13:59:48.498Z,28.95
2022-07-30T14:02:15.872Z,29.62
2022-07-30T14:04:43.236Z,28.89
2022-07-30T14:07:10.598Z,29.15
2022-07-30T14:09:45.869Z,29.20
2022-07-30T14:12:15.411Z,29.90
2022-07-30T14:14:42.766Z,30.02
2022-07-30T14:17:10.166Z,29.12
2022-07-30T14:19:37.556Z,31.05
2022-07-30T14:22:05.026Z,30.86
2022-07-30T14:24:32.409Z,31.38
2022-07-30T14:27:00.325Z,30.52
2022-07-30T14:29:28.220Z,31.43
2022-07-30T14:31:56.040Z,30.74
2022-07-30T14:34:23.603Z,30.59
2022-07-30T14:36:51.004Z,30.16
2022-07-30T14:39:18.459Z,29.89
2022-07-30T14:41:46.178Z,30.17
2022-07-30T14:44:13.795Z,30.12
2022-07-30T14:46:51.620Z,29.83
2022-07-30T14:49:23.934Z,29.77
2022-07-30T14:51:52.158Z,30.12
2022-07-30T14:54:20.118Z,30.29
2022-07-30T14:56:47.559Z,30.08
2022-07-30T14:59:15.048Z,29.81
2022-07-30T15:01:43.805Z,29.46
2022-07-30T15:04:11.609Z,29.57
2022-07-30T15:06:40.755Z,29.02
2022-07-30T15:09:08.931Z,29.45
2022-07-30T15:12:04.387Z,28.95
2022-07-30T15:14:24.763Z,29.11
2022-07-30T15:16:52.262Z,29.41
2022-07-30T15:19:19.309Z,29.59
2022-07-30T15:21:46.326Z,29.95
2022-07-30T15:24:13.347Z,29.84
2022-07-30T15:26:40.499Z,29.71
2022-07-30T15:29:11.641Z,29.99
2022-07-30T15:31:40.240Z,29.49
2022-07-30T15:34:10.899Z,30.12
2022-07-30T15:36:41.752Z,30.37
2022-07-30T15:39:08.772Z,29.64
2022-07-30T15:41:37.205Z,30.20
2022-07-30T15:44:04.641Z,30.89
2022-07-30T15:46:31.614Z,31.78
2022-07-30T15:48:58.950Z,30.82
2022-07-30T15:51:26.003Z,31.27
2022-07-30T15:53:52.986Z,31.48
2022-07-30T15:56:20.687Z,31.39
2022-07-30T15:58:47.783Z,31.33
2022-07-30T16:01:14.889Z,31.61
2022-07-30T16:03:42.332Z,32.44
2022-07-30T16:06:09.713Z,32.17
2022-07-30T16:08:37.123Z,32.12
2022-07-30T16:11:04.713Z,31.74
2022-07-30T16:13:32.451Z,31.96
2022-07-30T16:15:59.797Z,31.52
2022-07-30T16:18:27.262Z,32.04
2022-07-30T16:20:58.510Z,32.10
2022-07-30T16:23:26.173Z,32.52
2022-07-30T16:25:53.658Z,33.00
2022-07-30T16:28:21.045Z,32.68
2022-07-30T16:30:51.378Z,32.85
2022-07-30T16:33:19.940Z,33.47
2022-07-30T16:35:49.151Z,32.78
2022-07-30T16:38:19.831Z,32.58
2022-07-30T16:40:47.576Z,32.40
2022-07-30T16:43:16.184Z,32.67
2022-07-30T16:45:44.088Z,31.86
2022-07-30T16:48:12.011Z,31.87
2022-07-30T16:50:40.728Z,32.82
2022-07-30T16:53:13.288Z,32.41
2022-07-30T16:55:45.014Z,32.19
2022-07-30T16:58:12.779Z,32.37
2022-07-30T17:00:40.575Z,33.53
2022-07-30T17:03:08.597Z,32.50
2022-07-30T17:05:37.792Z,32.22
2022-07-30T17:08:13.627Z,31.70
2022-07-30T17:10:41.573Z,31.75
2022-07-30T17:13:09.193Z,32.11
2022-07-30T17:15:36.585Z,32.46
2022-07-30T17:18:04.171Z,32.71
2022-07-30T17:20:32.050Z,33.02
2022-07-30T17:22:59.464Z,32.97
2022-07-30T17:25:27.488Z,32.93
2022-07-30T17:27:56.274Z,33.44
2022-07-30T17:30:24.341Z,32.91
2022-07-30T17:32:52.040Z,33.27
2022-07-30T17:35:20.053Z,32.66
2022-07-30T17:37:47.455Z,33.45
2022-07-30T17:40:30.333Z,33.63
2022-07-30T17:43:04.006Z,33.44
2022-07-30T17:45:32.522Z,33.73
2022-07-30T17:48:01.540Z,34.09
2022-07-30T17:50:33.082Z,34.28
2022-07-30T17:53:03.461Z,34.42
2022-07-30T17:55:34.803Z,34.36
2022-07-30T17:58:03.912Z,34.25
2022-07-30T18:00:31.479Z,34.62
2022-07-30T18:02:59.114Z,34.50
2022-07-30T18:05:26.731Z,35.37
2022-07-30T18:07:54.124Z,35.06
2022-07-30T18:10:21.662Z,35.55
2022-07-30T18:12:49.491Z,35.75
2022-07-30T18:15:18.081Z,35.87
2022-07-30T18:17:46.055Z,36.49
2022-07-30T18:20:14.113Z,36.33
2022-07-30T18:22:42.053Z,36.56
2022-07-30T18:25:19.125Z,36.93
2022-07-30T18:27:47.663Z,36.89
2022-07-30T18:30:15.472Z,37.32
2022-07-30T18:32:43.479Z,37.88
2022-07-30T18:35:14.423Z,38.50
2022-07-30T18:37:43.249Z,38.03
2022-07-30T18:40:12.530Z,38.45
2022-07-30T18:42:40.070Z,38.30
2022-07-30T18:45:08.764Z,39.23
2022-07-30T18:47:36.208Z,39.46
2022-07-30T18:50:03.895Z,39.71
2022-07-30T18:52:31.268Z,39.57
2022-07-30T18:54:58.722Z,39.70
2022-07-30T18:57:26.256Z,39.57
2022-07-30T18:59:53.706Z,39.58
2022-07-30T19:02:21.265Z,40.43
2022-07-30T19:04:48.679Z,40.12
2022-07-30T19:07:16.020Z,40.62
2022-07-30T19:09:43.557Z,42.96
2022-07-30T19:12:11.029Z,42.92
2022-07-30T19:14:38.819Z,42.91
2022-07-30T19:17:13.666Z,43.30
2022-07-30T19:19:41.646Z,43.42
2022-07-30T19:22:09.172Z,44.44
2022-07-30T19:24:36.550Z,43.32
2022-07-30T19:27:04.666Z,43.84
2022-07-30T19:29:32.156Z,45.12
2022-07-30T19:32:00.080Z,47.24
2022-07-30T19:34:27.645Z,48.34
2022-07-30T19:36:55.053Z,47.16
2022-07-30T19:39:22.384Z,48.45
2022-07-30T19:41:51.095Z,48.02
2022-07-30T19:44:18.975Z,50.80
2022-07-30T19:46:48.751Z,49.93
2022-07-30T19:49:19.848Z,50.93
2022-07-30T19:52:10.041Z,50.44
2022-07-30T19:54:36.934Z,51.44
2022-07-30T19:57:04.844Z,51.94
2022-07-30T19:59:59.338Z,52.98
2022-07-30T20:02:22.465Z,51.23
2022-07-30T20:04:50.124Z,52.29
2022-07-30T20:07:17.584Z,53.49
2022-07-30T20:09:44.839Z,54.97
2022-07-30T20:12:15.529Z,54.02
2022-07-30T20:14:44.125Z,55.01
2022-07-30T20:17:11.110Z,55.28
2022-07-30T20:19:38.192Z,55.09
2022-07-30T20:22:14.751Z,55.27
2022-07-30T20:24:42.466Z,55.98
2022-07-30T20:27:36.560Z,56.28
2022-07-30T20:29:56.720Z,57.53
2022-07-30T20:32:24.630Z,57.86
2022-07-30T20:34:52.377Z,58.69
2022-07-30T20:37:21.736Z,59.85
2022-07-30T20:39:50.469Z,61.02
2022-07-30T20:42:18.521Z,61.56
2022-07-30T20:44:49.375Z,62.19
2022-07-30T20:47:34.801Z,62.67
2022-07-30T20:50:10.776Z,62.90
2022-07-30T20:52:46.817Z,63.58
2022-07-30T20:55:22.058Z,62.56
2022-07-30T20:58:01.967Z,63.30
2022-07-30T21:00:40.811Z,63.75
2022-07-30T21:05:56.490Z,64.25
2022-07-30T21:08:25.557Z,64.95
2022-07-30T21:10:53.738Z,65.39
2022-07-30T21:13:22.951Z,66.13
2022-07-30T21:16:01.764Z,66.60
2022-07-30T21:18:31.488Z,67.68
2022-07-30T21:21:00.651Z,67.40
2022-07-30T21:23:27.881Z,67.02
2022-07-30T21:28:41.916Z,69.49
2022-07-30T21:31:09.800Z,69.59
2022-07-30T21:33:37.869Z,69.63
2022-07-30T21:36:10.502Z,70.26
2022-07-30T21:38:42.611Z,70.10
2022-07-30T21:41:15.247Z,68.83
2022-07-30T21:43:44.269Z,69.95
2022-07-30T21:46:12.381Z,69.67
2022-07-30T21:48:39.976Z,68.74
2022-07-30T21:51:08.519Z,70.00
2022-07-30T21:53:44.884Z,70.07
2022-07-30T21:56:14.997Z,70.13
2022-07-30T21:58:43.506Z,69.28
2022-07-30T22:01:17.132Z,71.30
2022-07-30T22:04:03.274Z,70.55
2022-07-30T22:06:39.982Z,71.09
2022-07-30T22:09:19.345Z,72.73
2022-07-30T22:12:01.439Z,73.59
2022-07-30T22:14:29.198Z,72.61
2022-07-30T22:16:56.918Z,73.23
2022-07-30T22:19:25.777Z,74.32
2022-07-30T22:21:53.816Z,73.31
2022-07-30T22:24:29.990Z,75.05
2022-07-30T22:26:59.886Z,74.94
2022-07-30T22:29:34.106Z,74.99
2022-07-30T22:32:04.106Z,75.44
2022-07-30T22:34:32.465Z,75.78
2022-07-30T22:36:59.441Z,76.97
2022-07-30T22:39:32.249Z,75.91
2022-07-30T22:42:13.866Z,75.68
2022-07-30T22:44:42.062Z,74.81
2022-07-30T22:47:18.958Z,75.27
2022-07-30T22:50:00.360Z,74.77
2022-07-30T22:52:28.532Z,75.66
2022-07-30T22:54:59.656Z,77.12
2022-07-30T22:57:37.774Z,76.65
2022-07-30T23:00:14.251Z,76.82
2022-07-30T23:02:56.292Z,77.94
2022-07-30T23:05:24.052Z,79.08
2022-07-30T23:07:51.683Z,78.26
2022-07-30T23:10:20.332Z,78.78
2022-07-30T23:12:26.730Z,63.42
2022-07-30T23:12:31.574Z,68.46
2022-07-30T23:12:51.416Z,79.94
2022-07-30T23:15:19.813Z,80.80
2022-07-30T23:17:47.682Z,77.70
2022-07-30T23:20:23.157Z,78.57
2022-07-30T23:22:50.760Z,77.19
2022-07-30T23:25:18.189Z,75.54
2022-07-30T23:27:46.797Z,77.30
2022-07-30T23:30:14.417Z,77.13
2022-07-30T23:32:41.761Z,77.01
2022-07-30T23:35:10.608Z,77.81
2022-07-30T23:37:48.960Z,77.21
2022-07-30T23:40:18.615Z,76.77
2022-07-30T23:42:47.013Z,76.00
2022-07-30T23:45:14.139Z,76.33
2022-07-30T23:47:52.121Z,76.80
2022-07-30T23:50:29.504Z,77.50
2022-07-30T23:52:56.478Z,79.06
2022-07-30T23:55:23.705Z,81.31
2022-07-30T23:57:50.747Z,80.94
